createdAt,value
2018-08-18T00:29:51.213Z,2.47
2018-08-18T00:34:42.169Z,2.37
2018-08-18T00:39:33.797Z,1.97
2018-08-18T00:44:25.451Z,2.47
2018-08-18T00:49:16.340Z,3.57
2018-08-18T00:54:07.265Z,2.20
2018-08-18T00:58:58.270Z,2.40
2018-08-18T01:03:49.174Z,2.53
2018-08-18T01:08:40.084Z,2.20
2018-08-18T01:13:31.023Z,2.50
2018-08-18T01:18:21.931Z,2.00
2018-08-18T01:23:12.859Z,2.83
2018-08-18T01:28:03.749Z,2.57
2018-08-18T01:32:54.680Z,2.47
2018-08-18T01:37:45.602Z,2.20
2018-08-18T01:42:36.491Z,2.90
2018-08-18T01:47:27.410Z,3.10
2018-08-18T01:52:18.363Z,2.97
2018-08-18T01:57:09.271Z,2.90
2018-08-18T02:02:00.212Z,2.97
2018-08-18T02:06:51.105Z,3.40
2018-08-18T02:11:42.024Z,6.80
2018-08-18T02:16:32.954Z,2.73
2018-08-18T02:21:25.848Z,3.30
2018-08-18T02:26:16.747Z,3.40
2018-08-18T02:31:07.683Z,2.50
2018-08-18T02:35:58.690Z,3.10
2018-08-18T02:40:50.349Z,6.10
2018-08-18T02:45:41.994Z,2.70
2018-08-18T02:50:33.689Z,2.70
2018-08-18T02:55:24.626Z,3.47
2018-08-18T03:00:15.532Z,3.50
2018-08-18T03:05:06.430Z,2.77
2018-08-18T03:09:57.361Z,2.77
2018-08-18T03:14:48.244Z,2.20
2018-08-18T03:19:39.178Z,2.57
2018-08-18T03:24:30.107Z,2.80
2018-08-18T03:29:21.062Z,2.87
2018-08-18T03:34:12.792Z,2.37
2018-08-18T03:39:03.721Z,2.60
2018-08-18T03:43:55.356Z,2.47
2018-08-18T03:48:46.996Z,2.70
2018-08-18T03:53:38.692Z,2.60
2018-08-18T03:58:29.592Z,2.53
2018-08-18T04:03:20.547Z,2.53
2018-08-18T04:08:11.456Z,2.60
2018-08-18T04:13:02.363Z,2.73
2018-08-18T04:17:53.264Z,2.70
2018-08-18T04:22:44.245Z,2.63
2018-08-18T04:27:35.903Z,2.80
2018-08-18T04:32:26.857Z,2.93
2018-08-18T04:37:17.809Z,3.10
2018-08-18T04:42:08.724Z,4.93
2018-08-18T04:46:59.629Z,3.13
2018-08-18T04:51:51.292Z,3.10
2018-08-18T04:56:42.987Z,3.23
2018-08-18T05:01:33.873Z,2.87
2018-08-18T05:06:24.819Z,2.53
2018-08-18T05:11:15.745Z,3.50
2018-08-18T05:16:06.673Z,2.63
2018-08-18T05:20:57.599Z,3.20
2018-08-18T05:25:48.503Z,3.43
2018-08-18T05:30:39.415Z,3.57
2018-08-18T05:35:30.340Z,3.30
2018-08-18T05:40:21.253Z,3.27
2018-08-18T05:45:20.390Z,4.10
2018-08-18T05:50:12.029Z,2.93
2018-08-18T05:55:03.004Z,3.30
2018-08-18T05:59:53.915Z,2.30
2018-08-18T06:04:44.816Z,2.83
2018-08-18T06:09:35.711Z,2.77
2018-08-18T06:14:27.367Z,2.80
2018-08-18T06:19:18.295Z,2.93
2018-08-18T06:24:09.214Z,2.77
2018-08-18T06:29:00.124Z,5.73
2018-08-18T06:33:51.051Z,3.00
2018-08-18T06:38:42.015Z,2.60
2018-08-18T06:43:32.916Z,2.60
2018-08-18T06:48:23.814Z,1.90
2018-08-18T06:53:14.748Z,3.50
2018-08-18T06:58:05.669Z,2.37
2018-08-18T07:02:56.577Z,1.90
2018-08-18T07:07:47.524Z,2.20
2018-08-18T07:12:38.464Z,2.27
2018-08-18T07:17:29.356Z,2.97
2018-08-18T07:22:20.284Z,2.00
2018-08-18T07:27:11.231Z,1.40
2018-08-18T07:32:02.964Z,2.33
2018-08-18T07:36:54.597Z,1.70
2018-08-18T07:41:46.452Z,2.00
2018-08-18T07:46:37.407Z,1.73
2018-08-18T07:51:28.337Z,1.57
2018-08-18T07:56:19.250Z,2.40
2018-08-18T08:01:25.248Z,1.83
2018-08-18T08:06:16.201Z,1.27
2018-08-18T08:11:07.900Z,1.63
2018-08-18T08:15:59.650Z,3.20
2018-08-18T08:20:50.641Z,2.40
2018-08-18T08:25:41.556Z,1.67
2018-08-18T08:30:32.503Z,1.40
2018-08-18T08:35:23.496Z,1.40
2018-08-18T08:40:14.432Z,1.37
2018-08-18T08:45:05.572Z,1.50
2018-08-18T08:49:57.215Z,1.30
2018-08-18T08:54:48.916Z,1.60
2018-08-18T08:59:39.835Z,1.60
2018-08-18T09:04:30.723Z,1.53
2018-08-18T09:09:21.687Z,1.50
2018-08-18T09:14:12.712Z,1.90
2018-08-18T09:19:03.765Z,2.70
2018-08-18T09:23:54.670Z,1.57
2018-08-18T09:28:45.722Z,3.60
2018-08-18T09:33:36.689Z,1.20
2018-08-18T09:38:27.687Z,1.70
2018-08-18T09:43:18.616Z,3.70
2018-08-18T09:48:09.547Z,2.77
2018-08-18T09:53:00.563Z,1.77
2018-08-18T09:57:51.601Z,1.60
2018-08-18T10:02:42.550Z,1.80
2018-08-18T10:07:33.518Z,1.50
2018-08-18T10:12:24.492Z,1.27
2018-08-18T10:17:15.535Z,1.10
2018-08-18T10:22:06.511Z,1.57
2018-08-18T10:26:58.168Z,3.90
2018-08-18T10:31:49.136Z,1.83
2018-08-18T10:36:40.052Z,4.23
2018-08-18T10:41:30.967Z,1.83
2018-08-18T10:46:21.903Z,2.03
2018-08-18T10:51:12.895Z,3.03
2018-08-18T10:56:03.851Z,6.43
2018-08-18T11:00:55.560Z,1.90
2018-08-18T11:05:46.457Z,2.00
2018-08-18T11:10:37.456Z,1.67
2018-08-18T11:15:28.428Z,1.73
2018-08-18T11:20:19.431Z,2.43
2018-08-18T11:25:10.373Z,2.83
2018-08-18T11:30:01.377Z,2.00
2018-08-18T11:34:52.308Z,1.90
2018-08-18T11:39:43.201Z,1.70
2018-08-18T11:44:34.163Z,3.70
2018-08-18T11:49:25.868Z,3.63
2018-08-18T11:54:16.788Z,2.70
2018-08-18T11:59:07.692Z,2.40
2018-08-18T12:03:58.628Z,3.57
2018-08-18T12:08:49.554Z,2.20
2018-08-18T12:13:40.471Z,2.13
2018-08-18T12:18:31.387Z,3.10
2018-08-18T12:23:22.309Z,2.97
2018-08-18T12:28:13.200Z,3.00
2018-08-18T12:33:04.146Z,7.60
2018-08-18T12:37:55.162Z,3.00
2018-08-18T12:42:46.117Z,3.37
2018-08-18T12:47:37.744Z,3.07
2018-08-18T12:52:29.398Z,2.50
2018-08-18T12:57:20.370Z,3.10
2018-08-18T13:02:11.291Z,2.50
2018-08-18T13:07:02.295Z,2.90
2018-08-18T13:11:53.199Z,2.90
2018-08-18T13:16:44.118Z,3.10
2018-08-18T13:21:35.056Z,3.07
2018-08-18T13:26:25.961Z,5.07
2018-08-18T13:31:16.860Z,2.87
2018-08-18T13:36:07.820Z,2.70
2018-08-18T13:40:58.735Z,3.37
2018-08-18T13:45:49.640Z,4.30
2018-08-18T13:50:40.600Z,3.10
2018-08-18T13:55:32.318Z,3.07
2018-08-18T14:00:23.378Z,3.07
2018-08-18T14:05:14.347Z,3.83
2018-08-18T14:10:05.252Z,4.13
2018-08-18T14:14:56.199Z,7.17
2018-08-18T14:19:47.209Z,3.37
2018-08-18T14:24:38.349Z,3.07
2018-08-18T14:29:29.264Z,3.90
2018-08-18T14:34:20.359Z,3.33
2018-08-18T14:39:11.828Z,2.50
2018-08-18T14:44:02.715Z,2.40
2018-08-18T14:48:53.628Z,2.90
2018-08-18T14:53:44.595Z,2.70
2018-08-18T14:58:36.434Z,2.77
2018-08-18T15:03:28.160Z,2.50
2018-08-18T15:08:19.176Z,3.03
2018-08-18T15:13:10.096Z,3.00
2018-08-18T15:18:01.772Z,2.83
2018-08-18T15:22:52.680Z,3.33
2018-08-18T15:27:43.584Z,3.20
2018-08-18T15:32:35.264Z,2.40
2018-08-18T15:37:26.189Z,3.07
2018-08-18T15:42:17.166Z,2.50
2018-08-18T15:47:08.804Z,3.13
2018-08-18T15:52:00.452Z,3.40
2018-08-18T15:56:51.376Z,2.97
2018-08-18T16:01:42.329Z,3.10
2018-08-18T16:06:33.284Z,3.30
2018-08-18T16:11:24.911Z,4.37
2018-08-18T16:16:15.808Z,5.07
2018-08-18T16:21:06.716Z,4.20
2018-08-18T16:25:57.652Z,4.57
2018-08-18T16:30:48.548Z,4.67
2018-08-18T16:35:39.473Z,4.10
2018-08-18T16:40:30.376Z,4.57
2018-08-18T16:45:21.319Z,4.83
2018-08-18T16:50:12.247Z,4.70
2018-08-18T16:55:03.272Z,6.13
2018-08-18T16:59:54.185Z,3.60
2018-08-18T17:04:45.203Z,4.03
2018-08-18T17:09:36.115Z,4.90
2018-08-18T17:14:27.039Z,4.40
2018-08-18T17:19:17.955Z,3.77
2018-08-18T17:24:08.852Z,3.83
2018-08-18T17:28:59.748Z,4.47
2018-08-18T17:33:50.653Z,3.90
2018-08-18T17:38:41.587Z,3.80
2018-08-18T17:43:32.511Z,3.90
2018-08-18T17:48:23.464Z,4.30
2018-08-18T17:53:14.381Z,3.80
2018-08-18T17:58:06.831Z,3.70
2018-08-18T18:02:57.739Z,3.50
2018-08-18T18:07:48.664Z,4.10
2018-08-18T18:12:40.424Z,4.43
2018-08-18T18:17:31.325Z,4.93
2018-08-18T18:22:22.223Z,4.17
2018-08-18T18:27:13.126Z,4.30
2018-08-18T18:32:04.065Z,4.10
2018-08-18T18:36:55.041Z,5.17
2018-08-18T18:41:46.750Z,4.73
2018-08-18T18:46:37.756Z,4.43
2018-08-18T18:51:28.651Z,5.13
2018-08-18T18:56:19.560Z,4.40
2018-08-18T19:01:10.526Z,5.00
2018-08-18T19:06:01.478Z,4.33
2018-08-18T19:10:52.470Z,4.97
2018-08-18T19:15:44.808Z,4.33
2018-08-18T19:20:35.894Z,4.83
2018-08-18T19:25:26.801Z,5.73
2018-08-18T19:30:17.775Z,5.40
2018-08-18T19:35:09.003Z,7.90
2018-08-18T19:39:59.940Z,4.57
2018-08-18T19:44:51.685Z,5.90
2018-08-18T19:49:43.319Z,7.47
2018-08-18T19:54:34.254Z,4.63
2018-08-18T19:59:25.220Z,4.77
2018-08-18T20:04:16.191Z,5.13
2018-08-18T20:09:07.207Z,6.37
2018-08-18T20:13:58.223Z,4.50
2018-08-18T20:18:50.783Z,4.60
2018-08-18T20:23:42.524Z,4.80
2018-08-18T20:28:33.658Z,5.80
2018-08-18T20:33:24.717Z,4.17
2018-08-18T20:38:15.660Z,4.33
2018-08-18T20:43:06.600Z,4.57
2018-08-18T20:47:57.780Z,4.80
2018-08-18T20:52:48.758Z,4.63
2018-08-18T20:57:39.792Z,4.87
2018-08-18T21:02:32.537Z,4.77
2018-08-18T21:07:23.451Z,4.67
2018-08-18T21:12:14.509Z,5.37
2018-08-18T21:17:05.541Z,4.87
2018-08-18T21:21:56.968Z,5.17
2018-08-18T21:26:47.772Z,4.40
2018-08-18T21:31:39.768Z,5.20
2018-08-18T21:36:30.659Z,5.70
2018-08-18T21:41:21.688Z,6.93
2018-08-18T21:46:12.654Z,4.57
2018-08-18T21:51:03.792Z,6.00
2018-08-18T21:55:55.810Z,5.07
2018-08-18T22:00:47.555Z,5.10
2018-08-18T22:05:38.467Z,4.27
2018-08-18T22:10:29.723Z,5.77
2018-08-18T22:15:21.066Z,5.77
2018-08-18T22:20:12.471Z,5.87
2018-08-18T22:25:04.226Z,4.83
2018-08-18T22:29:55.321Z,4.60
2018-08-18T22:34:46.255Z,4.97
2018-08-18T22:39:37.892Z,4.77
2018-08-18T22:44:29.608Z,4.53
2018-08-18T22:49:20.559Z,4.80
2018-08-18T22:54:11.736Z,5.37
2018-08-18T22:59:02.747Z,4.93
2018-08-18T23:03:53.702Z,4.50
2018-08-18T23:08:46.017Z,4.83
2018-08-18T23:13:37.043Z,4.23
2018-08-18T23:18:27.982Z,4.40
2018-08-18T23:23:18.908Z,4.57
2018-08-18T23:28:09.827Z,4.77
2018-08-18T23:33:00.887Z,3.80
2018-08-18T23:42:50.328Z,4.63
2018-08-18T23:47:41.272Z,4.90
2018-08-18T23:52:32.163Z,4.10
2018-08-18T23:57:23.093Z,4.60
